sensor_id;sensor_type;location;lat;lon;timestamp;P1;durP1;ratioP1;P2;durP2;ratioP2
20441;SDS011;10380;52.102;20.614;2024-01-06T00:00:23;19.70;;;10.70;;
20441;SDS011;10380;52.102;20.614;2024-01-06T00:02:50;21.57;;;11.77;;
20441;SDS011;10380;52.102;20.614;2024-01-06T00:05:17;16.13;;;10.23;;
20441;SDS011;10380;52.102;20.614;2024-01-06T00:07:44;20.27;;;11.40;;
20441;SDS011;10380;52.102;20.614;2024-01-06T00:10:11;21.27;;;12.20;;
20441;SDS011;10380;52.102;20.614;2024-01-06T00:12:42;17.37;;;10.73;;
20441;SDS011;10380;52.102;20.614;2024-01-06T00:15:09;16.73;;;10.03;;
20441;SDS011;10380;52.102;20.614;2024-01-06T00:17:37;17.63;;;10.90;;
20441;SDS011;10380;52.102;20.614;2024-01-06T00:20:04;16.83;;;10.50;;
20441;SDS011;10380;52.102;20.614;2024-01-06T00:22:32;14.90;;;9.50;;
20441;SDS011;10380;52.102;20.614;2024-01-06T00:24:59;21.73;;;11.47;;
20441;SDS011;10380;52.102;20.614;2024-01-06T00:27:27;17.13;;;9.33;;
20441;SDS011;10380;52.102;20.614;2024-01-06T00:29:54;16.10;;;10.37;;
20441;SDS011;10380;52.102;20.614;2024-01-06T00:32:20;19.40;;;10.73;;
20441;SDS011;10380;52.102;20.614;2024-01-06T00:34:47;19.43;;;10.17;;
20441;SDS011;10380;52.102;20.614;2024-01-06T00:37:14;29.10;;;12.53;;
20441;SDS011;10380;52.102;20.614;2024-01-06T00:39:41;23.80;;;12.37;;
20441;SDS011;10380;52.102;20.614;2024-01-06T00:42:08;18.07;;;11.13;;
20441;SDS011;10380;52.102;20.614;2024-01-06T00:44:35;20.17;;;11.63;;
20441;SDS011;10380;52.102;20.614;2024-01-06T00:47:03;16.80;;;10.43;;
20441;SDS011;10380;52.102;20.614;2024-01-06T00:49:30;18.63;;;10.70;;
20441;SDS011;10380;52.102;20.614;2024-01-06T00:51:57;19.13;;;11.60;;
20441;SDS011;10380;52.102;20.614;2024-01-06T00:54:24;24.30;;;12.67;;
20441;SDS011;10380;52.102;20.614;2024-01-06T00:56:51;18.17;;;10.77;;
20441;SDS011;10380;52.102;20.614;2024-01-06T00:59:21;15.67;;;10.40;;
20441;SDS011;10380;52.102;20.614;2024-01-06T01:01:48;19.57;;;10.17;;
20441;SDS011;10380;52.102;20.614;2024-01-06T01:04:15;16.20;;;10.67;;
20441;SDS011;10380;52.102;20.614;2024-01-06T01:06:42;32.57;;;13.93;;
20441;SDS011;10380;52.102;20.614;2024-01-06T01:09:09;24.83;;;13.23;;
20441;SDS011;10380;52.102;20.614;2024-01-06T01:11:36;22.97;;;11.90;;
20441;SDS011;10380;52.102;20.614;2024-01-06T01:14:03;19.90;;;11.33;;
20441;SDS011;10380;52.102;20.614;2024-01-06T01:16:30;18.57;;;11.27;;
20441;SDS011;10380;52.102;20.614;2024-01-06T01:18:58;19.03;;;11.33;;
20441;SDS011;10380;52.102;20.614;2024-01-06T01:21:25;21.00;;;11.60;;
20441;SDS011;10380;52.102;20.614;2024-01-06T01:23:53;23.27;;;11.57;;
20441;SDS011;10380;52.102;20.614;2024-01-06T01:26:19;31.17;;;13.13;;
20441;SDS011;10380;52.102;20.614;2024-01-06T01:28:46;20.07;;;11.10;;
20441;SDS011;10380;52.102;20.614;2024-01-06T01:31:13;20.13;;;12.07;;
20441;SDS011;10380;52.102;20.614;2024-01-06T01:33:40;19.77;;;11.23;;
20441;SDS011;10380;52.102;20.614;2024-01-06T01:36:08;22.10;;;11.60;;
20441;SDS011;10380;52.102;20.614;2024-01-06T01:38:35;21.30;;;11.20;;
20441;SDS011;10380;52.102;20.614;2024-01-06T01:41:01;21.83;;;12.10;;
20441;SDS011;10380;52.102;20.614;2024-01-06T01:43:28;23.77;;;12.93;;
20441;SDS011;10380;52.102;20.614;2024-01-06T01:45:56;17.10;;;10.87;;
20441;SDS011;10380;52.102;20.614;2024-01-06T01:48:24;16.70;;;11.27;;
20441;SDS011;10380;52.102;20.614;2024-01-06T01:50:52;19.67;;;11.53;;
20441;SDS011;10380;52.102;20.614;2024-01-06T01:53:20;19.10;;;12.70;;
20441;SDS011;10380;52.102;20.614;2024-01-06T01:55:48;18.30;;;10.37;;
20441;SDS011;10380;52.102;20.614;2024-01-06T01:58:15;22.90;;;12.30;;
20441;SDS011;10380;52.102;20.614;2024-01-06T02:00:43;21.93;;;12.63;;
20441;SDS011;10380;52.102;20.614;2024-01-06T02:03:10;21.27;;;12.10;;
20441;SDS011;10380;52.102;20.614;2024-01-06T02:05:40;27.30;;;13.27;;
20441;SDS011;10380;52.102;20.614;2024-01-06T02:08:07;26.53;;;12.13;;
20441;SDS011;10380;52.102;20.614;2024-01-06T02:10:35;24.50;;;12.73;;
20441;SDS011;10380;52.102;20.614;2024-01-06T02:13:09;20.87;;;13.13;;
20441;SDS011;10380;52.102;20.614;2024-01-06T02:15:39;22.20;;;12.77;;
20441;SDS011;10380;52.102;20.614;2024-01-06T02:18:06;22.60;;;13.43;;
20441;SDS011;10380;52.102;20.614;2024-01-06T02:20:34;27.37;;;15.80;;
20441;SDS011;10380;52.102;20.614;2024-01-06T02:23:01;20.33;;;12.83;;
20441;SDS011;10380;52.102;20.614;2024-01-06T02:25:28;23.73;;;13.00;;
20441;SDS011;10380;52.102;20.614;2024-01-06T02:27:56;23.17;;;14.07;;
20441;SDS011;10380;52.102;20.614;2024-01-06T02:30:23;24.90;;;14.53;;
20441;SDS011;10380;52.102;20.614;2024-01-06T02:32:50;25.63;;;13.87;;
20441;SDS011;10380;52.102;20.614;2024-01-06T02:35:18;27.80;;;14.63;;
20441;SDS011;10380;52.102;20.614;2024-01-06T02:37:47;28.50;;;14.53;;
20441;SDS011;10380;52.102;20.614;2024-01-06T02:40:14;23.87;;;13.53;;
20441;SDS011;10380;52.102;20.614;2024-01-06T02:42:41;24.77;;;13.43;;
20441;SDS011;10380;52.102;20.614;2024-01-06T02:45:08;24.93;;;14.93;;
20441;SDS011;10380;52.102;20.614;2024-01-06T02:47:36;30.77;;;15.23;;
20441;SDS011;10380;52.102;20.614;2024-01-06T02:50:03;31.47;;;15.90;;
20441;SDS011;10380;52.102;20.614;2024-01-06T02:52:31;22.00;;;12.60;;
20441;SDS011;10380;52.102;20.614;2024-01-06T02:54:58;22.47;;;12.67;;
20441;SDS011;10380;52.102;20.614;2024-01-06T02:57:25;22.93;;;12.77;;
20441;SDS011;10380;52.102;20.614;2024-01-06T02:59:52;27.43;;;15.97;;
20441;SDS011;10380;52.102;20.614;2024-01-06T03:02:19;26.83;;;15.50;;
20441;SDS011;10380;52.102;20.614;2024-01-06T03:04:45;25.20;;;13.33;;
20441;SDS011;10380;52.102;20.614;2024-01-06T03:07:12;25.10;;;13.93;;
20441;SDS011;10380;52.102;20.614;2024-01-06T03:09:39;24.67;;;13.03;;
20441;SDS011;10380;52.102;20.614;2024-01-06T03:12:07;23.27;;;12.50;;
20441;SDS011;10380;52.102;20.614;2024-01-06T03:14:34;18.80;;;11.10;;
20441;SDS011;10380;52.102;20.614;2024-01-06T03:17:02;19.50;;;11.33;;
20441;SDS011;10380;52.102;20.614;2024-01-06T03:19:29;21.40;;;12.27;;
20441;SDS011;10380;52.102;20.614;2024-01-06T03:21:57;19.30;;;10.13;;
20441;SDS011;10380;52.102;20.614;2024-01-06T03:24:25;18.00;;;10.83;;
20441;SDS011;10380;52.102;20.614;2024-01-06T03:26:53;17.50;;;10.83;;
20441;SDS011;10380;52.102;20.614;2024-01-06T03:29:20;20.43;;;11.03;;
20441;SDS011;10380;52.102;20.614;2024-01-06T03:31:46;17.50;;;10.40;;
20441;SDS011;10380;52.102;20.614;2024-01-06T03:34:14;18.17;;;10.60;;
20441;SDS011;10380;52.102;20.614;2024-01-06T03:36:42;19.00;;;11.03;;
20441;SDS011;10380;52.102;20.614;2024-01-06T03:39:09;17.93;;;10.23;;
20441;SDS011;10380;52.102;20.614;2024-01-06T03:41:37;15.80;;;10.53;;
20441;SDS011;10380;52.102;20.614;2024-01-06T03:44:04;20.33;;;10.73;;
20441;SDS011;10380;52.102;20.614;2024-01-06T03:46:31;18.17;;;10.67;;
20441;SDS011;10380;52.102;20.614;2024-01-06T03:48:58;18.07;;;10.60;;
20441;SDS011;10380;52.102;20.614;2024-01-06T03:51:26;18.60;;;10.40;;
20441;SDS011;10380;52.102;20.614;2024-01-06T03:53:52;19.23;;;10.53;;
20441;SDS011;10380;52.102;20.614;2024-01-06T03:56:19;17.93;;;11.27;;
20441;SDS011;10380;52.102;20.614;2024-01-06T03:58:47;20.90;;;11.03;;
20441;SDS011;10380;52.102;20.614;2024-01-06T04:01:14;17.80;;;10.47;;
20441;SDS011;10380;52.102;20.614;2024-01-06T04:03:41;16.57;;;11.07;;
20441;SDS011;10380;52.102;20.614;2024-01-06T04:06:09;22.57;;;11.90;;
20441;SDS011;10380;52.102;20.614;2024-01-06T04:08:36;20.00;;;11.00;;
20441;SDS011;10380;52.102;20.614;2024-01-06T04:11:03;19.23;;;10.23;;
20441;SDS011;10380;52.102;20.614;2024-01-06T04:13:30;22.63;;;10.10;;
20441;SDS011;10380;52.102;20.614;2024-01-06T04:15:57;18.63;;;10.80;;
20441;SDS011;10380;52.102;20.614;2024-01-06T04:18:24;18.30;;;11.77;;
20441;SDS011;10380;52.102;20.614;2024-01-06T04:20:51;17.80;;;10.03;;
20441;SDS011;10380;52.102;20.614;2024-01-06T04:23:18;15.03;;;9.40;;
20441;SDS011;10380;52.102;20.614;2024-01-06T04:25:48;17.97;;;11.53;;
20441;SDS011;10380;52.102;20.614;2024-01-06T04:28:15;17.17;;;10.47;;
20441;SDS011;10380;52.102;20.614;2024-01-06T04:30:42;16.07;;;9.87;;
20441;SDS011;10380;52.102;20.614;2024-01-06T04:33:09;14.10;;;9.37;;
20441;SDS011;10380;52.102;20.614;2024-01-06T04:35:36;15.20;;;8.47;;
20441;SDS011;10380;52.102;20.614;2024-01-06T04:38:03;17.27;;;10.87;;
20441;SDS011;10380;52.102;20.614;2024-01-06T04:40:30;16.93;;;9.33;;
20441;SDS011;10380;52.102;20.614;2024-01-06T04:42:57;17.13;;;10.10;;
20441;SDS011;10380;52.102;20.614;2024-01-06T04:45:24;17.37;;;10.13;;
20441;SDS011;10380;52.102;20.614;2024-01-06T04:47:51;13.87;;;9.00;;
20441;SDS011;10380;52.102;20.614;2024-01-06T04:50:18;16.03;;;9.57;;
20441;SDS011;10380;52.102;20.614;2024-01-06T04:52:45;16.97;;;9.80;;
20441;SDS011;10380;52.102;20.614;2024-01-06T04:55:12;15.40;;;9.07;;
20441;SDS011;10380;52.102;20.614;2024-01-06T04:57:39;15.00;;;9.37;;
20441;SDS011;10380;52.102;20.614;2024-01-06T05:00:06;17.77;;;9.40;;
20441;SDS011;10380;52.102;20.614;2024-01-06T05:02:34;14.77;;;9.20;;
20441;SDS011;10380;52.102;20.614;2024-01-06T05:05:01;15.63;;;9.97;;
20441;SDS011;10380;52.102;20.614;2024-01-06T05:07:28;15.30;;;9.53;;
20441;SDS011;10380;52.102;20.614;2024-01-06T05:09:54;14.77;;;9.77;;
20441;SDS011;10380;52.102;20.614;2024-01-06T05:12:22;14.07;;;9.57;;
20441;SDS011;10380;52.102;20.614;2024-01-06T05:14:49;14.70;;;9.13;;
20441;SDS011;10380;52.102;20.614;2024-01-06T05:17:16;19.47;;;9.70;;
20441;SDS011;10380;52.102;20.614;2024-01-06T05:19:43;14.13;;;9.33;;
20441;SDS011;10380;52.102;20.614;2024-01-06T05:22:10;15.03;;;9.70;;
20441;SDS011;10380;52.102;20.614;2024-01-06T05:24:37;15.47;;;9.90;;
20441;SDS011;10380;52.102;20.614;2024-01-06T05:27:04;13.70;;;10.07;;
20441;SDS011;10380;52.102;20.614;2024-01-06T05:29:31;14.50;;;9.33;;
20441;SDS011;10380;52.102;20.614;2024-01-06T05:31:57;12.90;;;8.97;;
20441;SDS011;10380;52.102;20.614;2024-01-06T05:34:24;14.67;;;9.63;;
20441;SDS011;10380;52.102;20.614;2024-01-06T05:36:51;17.43;;;9.57;;
20441;SDS011;10380;52.102;20.614;2024-01-06T05:39:19;17.93;;;10.13;;
20441;SDS011;10380;52.102;20.614;2024-01-06T05:41:46;14.20;;;9.87;;
20441;SDS011;10380;52.102;20.614;2024-01-06T05:44:13;13.53;;;10.00;;
20441;SDS011;10380;52.102;20.614;2024-01-06T05:46:40;14.17;;;9.77;;
20441;SDS011;10380;52.102;20.614;2024-01-06T05:49:07;12.20;;;8.40;;
20441;SDS011;10380;52.102;20.614;2024-01-06T05:51:35;14.23;;;8.80;;
20441;SDS011;10380;52.102;20.614;2024-01-06T05:54:02;13.13;;;8.60;;
20441;SDS011;10380;52.102;20.614;2024-01-06T05:56:29;16.73;;;10.60;;
20441;SDS011;10380;52.102;20.614;2024-01-06T05:58:56;17.07;;;10.40;;
20441;SDS011;10380;52.102;20.614;2024-01-06T06:01:23;14.30;;;9.50;;
20441;SDS011;10380;52.102;20.614;2024-01-06T06:03:51;16.60;;;10.10;;
20441;SDS011;10380;52.102;20.614;2024-01-06T06:06:18;13.80;;;9.03;;
20441;SDS011;10380;52.102;20.614;2024-01-06T06:08:45;14.73;;;9.47;;
20441;SDS011;10380;52.102;20.614;2024-01-06T06:11:14;19.30;;;11.43;;
20441;SDS011;10380;52.102;20.614;2024-01-06T06:13:41;17.43;;;10.50;;
20441;SDS011;10380;52.102;20.614;2024-01-06T06:16:11;18.23;;;11.53;;
20441;SDS011;10380;52.102;20.614;2024-01-06T06:18:41;27.20;;;13.23;;
20441;SDS011;10380;52.102;20.614;2024-01-06T06:21:08;27.10;;;12.63;;
20441;SDS011;10380;52.102;20.614;2024-01-06T06:23:35;20.67;;;11.23;;
20441;SDS011;10380;52.102;20.614;2024-01-06T06:26:05;19.83;;;11.70;;
20441;SDS011;10380;52.102;20.614;2024-01-06T06:28:33;19.50;;;10.53;;
20441;SDS011;10380;52.102;20.614;2024-01-06T06:31:01;21.47;;;11.70;;
20441;SDS011;10380;52.102;20.614;2024-01-06T06:33:29;22.30;;;12.03;;
20441;SDS011;10380;52.102;20.614;2024-01-06T06:35:56;17.30;;;10.97;;
20441;SDS011;10380;52.102;20.614;2024-01-06T06:38:24;22.10;;;11.53;;
20441;SDS011;10380;52.102;20.614;2024-01-06T06:40:52;20.90;;;11.63;;
20441;SDS011;10380;52.102;20.614;2024-01-06T06:43:19;15.97;;;10.57;;
20441;SDS011;10380;52.102;20.614;2024-01-06T06:45:46;19.50;;;10.47;;
20441;SDS011;10380;52.102;20.614;2024-01-06T06:48:13;19.57;;;11.23;;
20441;SDS011;10380;52.102;20.614;2024-01-06T06:50:40;15.63;;;9.40;;
20441;SDS011;10380;52.102;20.614;2024-01-06T06:53:07;19.20;;;11.40;;
20441;SDS011;10380;52.102;20.614;2024-01-06T06:55:35;17.63;;;10.13;;
20441;SDS011;10380;52.102;20.614;2024-01-06T06:58:04;17.30;;;9.90;;
20441;SDS011;10380;52.102;20.614;2024-01-06T07:00:32;17.07;;;9.97;;
20441;SDS011;10380;52.102;20.614;2024-01-06T07:02:59;22.63;;;12.27;;
20441;SDS011;10380;52.102;20.614;2024-01-06T07:05:27;19.83;;;11.67;;
20441;SDS011;10380;52.102;20.614;2024-01-06T07:07:54;15.63;;;10.13;;
20441;SDS011;10380;52.102;20.614;2024-01-06T07:10:21;16.97;;;10.23;;
20441;SDS011;10380;52.102;20.614;2024-01-06T07:12:48;18.17;;;9.83;;
20441;SDS011;10380;52.102;20.614;2024-01-06T07:15:16;16.60;;;11.40;;
20441;SDS011;10380;52.102;20.614;2024-01-06T07:17:43;16.10;;;9.90;;
20441;SDS011;10380;52.102;20.614;2024-01-06T07:20:10;18.37;;;11.53;;
20441;SDS011;10380;52.102;20.614;2024-01-06T07:22:37;17.27;;;10.57;;
20441;SDS011;10380;52.102;20.614;2024-01-06T07:25:04;17.53;;;10.53;;
20441;SDS011;10380;52.102;20.614;2024-01-06T07:27:32;19.20;;;10.97;;
20441;SDS011;10380;52.102;20.614;2024-01-06T07:29:59;18.17;;;11.97;;
20441;SDS011;10380;52.102;20.614;2024-01-06T07:32:27;28.87;;;13.77;;
20441;SDS011;10380;52.102;20.614;2024-01-06T07:34:54;15.23;;;9.70;;
20441;SDS011;10380;52.102;20.614;2024-01-06T07:37:21;14.30;;;10.03;;
20441;SDS011;10380;52.102;20.614;2024-01-06T07:39:49;16.63;;;10.83;;
20441;SDS011;10380;52.102;20.614;2024-01-06T07:42:16;25.27;;;13.83;;
20441;SDS011;10380;52.102;20.614;2024-01-06T07:44:43;21.00;;;11.33;;
20441;SDS011;10380;52.102;20.614;2024-01-06T07:47:10;20.80;;;12.37;;
20441;SDS011;10380;52.102;20.614;2024-01-06T07:49:37;18.60;;;11.40;;
20441;SDS011;10380;52.102;20.614;2024-01-06T07:52:04;15.07;;;9.83;;
20441;SDS011;10380;52.102;20.614;2024-01-06T07:54:31;20.40;;;11.97;;
20441;SDS011;10380;52.102;20.614;2024-01-06T07:56:58;23.57;;;12.67;;
20441;SDS011;10380;52.102;20.614;2024-01-06T07:59:25;27.00;;;14.37;;
20441;SDS011;10380;52.102;20.614;2024-01-06T08:01:52;20.17;;;11.30;;
20441;SDS011;10380;52.102;20.614;2024-01-06T08:04:19;18.63;;;10.90;;
20441;SDS011;10380;52.102;20.614;2024-01-06T08:06:46;17.20;;;11.30;;
20441;SDS011;10380;52.102;20.614;2024-01-06T08:09:13;20.53;;;10.77;;
20441;SDS011;10380;52.102;20.614;2024-01-06T08:11:40;18.60;;;11.80;;
20441;SDS011;10380;52.102;20.614;2024-01-06T08:14:09;20.17;;;11.67;;
20441;SDS011;10380;52.102;20.614;2024-01-06T08:16:37;17.40;;;11.23;;
20441;SDS011;10380;52.102;20.614;2024-01-06T08:19:04;21.37;;;11.33;;
20441;SDS011;10380;52.102;20.614;2024-01-06T08:21:31;17.17;;;11.30;;
20441;SDS011;10380;52.102;20.614;2024-01-06T08:23:59;20.77;;;10.80;;
20441;SDS011;10380;52.102;20.614;2024-01-06T08:26:25;22.57;;;12.53;;
20441;SDS011;10380;52.102;20.614;2024-01-06T08:28:53;17.20;;;11.57;;
20441;SDS011;10380;52.102;20.614;2024-01-06T08:31:19;16.93;;;11.13;;
20441;SDS011;10380;52.102;20.614;2024-01-06T08:33:46;49.33;;;19.53;;
20441;SDS011;10380;52.102;20.614;2024-01-06T08:36:14;23.53;;;13.07;;
20441;SDS011;10380;52.102;20.614;2024-01-06T08:38:41;23.93;;;13.23;;
20441;SDS011;10380;52.102;20.614;2024-01-06T08:41:08;20.77;;;12.10;;
20441;SDS011;10380;52.102;20.614;2024-01-06T08:43:34;19.53;;;11.80;;
20441;SDS011;10380;52.102;20.614;2024-01-06T08:46:01;26.90;;;13.93;;
20441;SDS011;10380;52.102;20.614;2024-01-06T08:48:28;22.50;;;12.53;;
20441;SDS011;10380;52.102;20.614;2024-01-06T08:51:01;28.07;;;14.80;;
20441;SDS011;10380;52.102;20.614;2024-01-06T08:53:27;26.77;;;13.70;;
20441;SDS011;10380;52.102;20.614;2024-01-06T08:55:54;23.60;;;13.33;;
20441;SDS011;10380;52.102;20.614;2024-01-06T08:58:21;23.53;;;13.07;;
20441;SDS011;10380;52.102;20.614;2024-01-06T09:00:48;25.23;;;11.83;;
20441;SDS011;10380;52.102;20.614;2024-01-06T09:03:16;20.03;;;12.30;;
20441;SDS011;10380;52.102;20.614;2024-01-06T09:05:44;19.90;;;12.07;;
20441;SDS011;10380;52.102;20.614;2024-01-06T09:08:11;18.83;;;12.73;;
20441;SDS011;10380;52.102;20.614;2024-01-06T09:10:38;19.83;;;12.67;;
20441;SDS011;10380;52.102;20.614;2024-01-06T09:13:05;24.93;;;13.47;;
20441;SDS011;10380;52.102;20.614;2024-01-06T09:15:31;21.00;;;12.47;;
20441;SDS011;10380;52.102;20.614;2024-01-06T09:17:58;58.37;;;21.80;;
20441;SDS011;10380;52.102;20.614;2024-01-06T09:20:25;28.00;;;15.47;;
20441;SDS011;10380;52.102;20.614;2024-01-06T09:22:54;34.60;;;15.50;;
20441;SDS011;10380;52.102;20.614;2024-01-06T09:25:21;29.93;;;14.43;;
20441;SDS011;10380;52.102;20.614;2024-01-06T09:27:51;21.67;;;12.70;;
20441;SDS011;10380;52.102;20.614;2024-01-06T09:30:19;25.43;;;14.47;;
20441;SDS011;10380;52.102;20.614;2024-01-06T09:32:47;29.33;;;14.77;;
20441;SDS011;10380;52.102;20.614;2024-01-06T09:35:14;25.73;;;14.17;;
20441;SDS011;10380;52.102;20.614;2024-01-06T09:37:41;31.93;;;15.27;;
20441;SDS011;10380;52.102;20.614;2024-01-06T09:40:09;24.00;;;14.57;;
20441;SDS011;10380;52.102;20.614;2024-01-06T09:42:39;20.50;;;13.13;;
20441;SDS011;10380;52.102;20.614;2024-01-06T09:45:06;22.97;;;12.97;;
20441;SDS011;10380;52.102;20.614;2024-01-06T09:47:34;28.60;;;15.33;;
20441;SDS011;10380;52.102;20.614;2024-01-06T09:50:02;19.53;;;13.57;;
20441;SDS011;10380;52.102;20.614;2024-01-06T09:52:33;23.77;;;14.30;;
20441;SDS011;10380;52.102;20.614;2024-01-06T09:55:01;22.33;;;13.60;;
20441;SDS011;10380;52.102;20.614;2024-01-06T09:57:32;27.83;;;13.40;;
20441;SDS011;10380;52.102;20.614;2024-01-06T10:00:00;31.30;;;14.67;;
20441;SDS011;10380;52.102;20.614;2024-01-06T10:02:28;31.10;;;15.30;;
20441;SDS011;10380;52.102;20.614;2024-01-06T10:04:58;22.63;;;13.27;;
20441;SDS011;10380;52.102;20.614;2024-01-06T10:07:28;25.63;;;14.93;;
20441;SDS011;10380;52.102;20.614;2024-01-06T10:09:55;30.73;;;16.30;;
20441;SDS011;10380;52.102;20.614;2024-01-06T10:12:23;23.83;;;13.23;;
20441;SDS011;10380;52.102;20.614;2024-01-06T10:14:52;20.83;;;11.33;;
20441;SDS011;10380;52.102;20.614;2024-01-06T10:17:19;22.63;;;12.40;;
20441;SDS011;10380;52.102;20.614;2024-01-06T10:19:46;25.43;;;13.47;;
20441;SDS011;10380;52.102;20.614;2024-01-06T10:22:19;21.80;;;12.87;;
20441;SDS011;10380;52.102;20.614;2024-01-06T10:24:46;29.90;;;13.23;;
20441;SDS011;10380;52.102;20.614;2024-01-06T10:27:12;22.97;;;13.20;;
20441;SDS011;10380;52.102;20.614;2024-01-06T10:29:39;31.63;;;17.17;;
20441;SDS011;10380;52.102;20.614;2024-01-06T10:32:06;28.23;;;14.87;;
20441;SDS011;10380;52.102;20.614;2024-01-06T10:34:33;22.13;;;15.17;;
20441;SDS011;10380;52.102;20.614;2024-01-06T10:37:03;29.37;;;15.60;;
20441;SDS011;10380;52.102;20.614;2024-01-06T10:39:32;24.37;;;14.23;;
20441;SDS011;10380;52.102;20.614;2024-01-06T10:42:03;28.23;;;15.37;;
20441;SDS011;10380;52.102;20.614;2024-01-06T10:44:32;32.10;;;16.77;;
20441;SDS011;10380;52.102;20.614;2024-01-06T10:47:00;49.97;;;20.57;;
20441;SDS011;10380;52.102;20.614;2024-01-06T10:49:29;71.73;;;27.07;;
20441;SDS011;10380;52.102;20.614;2024-01-06T10:51:57;37.57;;;17.13;;
20441;SDS011;10380;52.102;20.614;2024-01-06T10:54:25;42.57;;;17.07;;
20441;SDS011;10380;52.102;20.614;2024-01-06T10:56:54;39.50;;;17.43;;
20441;SDS011;10380;52.102;20.614;2024-01-06T10:59:23;40.93;;;17.50;;
20441;SDS011;10380;52.102;20.614;2024-01-06T11:01:54;30.17;;;15.70;;
20441;SDS011;10380;52.102;20.614;2024-01-06T11:04:22;43.33;;;16.70;;
20441;SDS011;10380;52.102;20.614;2024-01-06T11:06:52;42.10;;;17.07;;
20441;SDS011;10380;52.102;20.614;2024-01-06T11:09:21;32.50;;;16.70;;
20441;SDS011;10380;52.102;20.614;2024-01-06T11:11:53;37.17;;;16.83;;
20441;SDS011;10380;52.102;20.614;2024-01-06T11:16:48;24.17;;;14.37;;
20441;SDS011;10380;52.102;20.614;2024-01-06T11:22:18;23.53;;;13.50;;
20441;SDS011;10380;52.102;20.614;2024-01-06T11:25:05;22.07;;;12.87;;
20441;SDS011;10380;52.102;20.614;2024-01-06T11:27:39;18.53;;;12.67;;
20441;SDS011;10380;52.102;20.614;2024-01-06T11:30:19;19.77;;;10.90;;
20441;SDS011;10380;52.102;20.614;2024-01-06T11:32:47;18.90;;;12.43;;
20441;SDS011;10380;52.102;20.614;2024-01-06T11:35:14;20.03;;;13.07;;
20441;SDS011;10380;52.102;20.614;2024-01-06T11:40:10;24.30;;;12.63;;
20441;SDS011;10380;52.102;20.614;2024-01-06T11:42:44;20.73;;;12.27;;
20441;SDS011;10380;52.102;20.614;2024-01-06T11:45:12;18.80;;;12.07;;
20441;SDS011;10380;52.102;20.614;2024-01-06T11:47:40;19.67;;;12.57;;
20441;SDS011;10380;52.102;20.614;2024-01-06T11:50:13;43.07;;;19.10;;
20441;SDS011;10380;52.102;20.614;2024-01-06T11:52:41;22.77;;;12.40;;
20441;SDS011;10380;52.102;20.614;2024-01-06T11:55:09;20.33;;;12.07;;
20441;SDS011;10380;52.102;20.614;2024-01-06T11:57:36;26.40;;;14.13;;
20441;SDS011;10380;52.102;20.614;2024-01-06T12:00:04;23.03;;;13.17;;
20441;SDS011;10380;52.102;20.614;2024-01-06T12:02:32;21.37;;;11.93;;
20441;SDS011;10380;52.102;20.614;2024-01-06T12:04:59;19.00;;;13.07;;
20441;SDS011;10380;52.102;20.614;2024-01-06T12:07:26;19.10;;;11.57;;
20441;SDS011;10380;52.102;20.614;2024-01-06T12:10:02;14.37;;;9.63;;
20441;SDS011;10380;52.102;20.614;2024-01-06T12:12:30;18.70;;;10.03;;
20441;SDS011;10380;52.102;20.614;2024-01-06T12:14:57;13.63;;;9.17;;
20441;SDS011;10380;52.102;20.614;2024-01-06T12:17:24;14.73;;;9.33;;
20441;SDS011;10380;52.102;20.614;2024-01-06T12:19:56;14.23;;;10.43;;
20441;SDS011;10380;52.102;20.614;2024-01-06T12:22:23;13.53;;;9.33;;
20441;SDS011;10380;52.102;20.614;2024-01-06T12:24:50;19.30;;;12.53;;
20441;SDS011;10380;52.102;20.614;2024-01-06T12:27:17;19.73;;;11.67;;
20441;SDS011;10380;52.102;20.614;2024-01-06T12:29:46;20.37;;;12.47;;
20441;SDS011;10380;52.102;20.614;2024-01-06T12:32:14;25.67;;;12.27;;
20441;SDS011;10380;52.102;20.614;2024-01-06T12:34:41;19.27;;;12.20;;
20441;SDS011;10380;52.102;20.614;2024-01-06T12:37:08;25.27;;;13.50;;
20441;SDS011;10380;52.102;20.614;2024-01-06T12:39:35;17.03;;;11.90;;
20441;SDS011;10380;52.102;20.614;2024-01-06T12:42:02;21.93;;;13.03;;
20441;SDS011;10380;52.102;20.614;2024-01-06T12:44:29;20.70;;;11.87;;
20441;SDS011;10380;52.102;20.614;2024-01-06T12:46:58;18.97;;;13.17;;
20441;SDS011;10380;52.102;20.614;2024-01-06T12:49:25;25.67;;;13.63;;
20441;SDS011;10380;52.102;20.614;2024-01-06T12:51:52;69.90;;;23.53;;
20441;SDS011;10380;52.102;20.614;2024-01-06T12:54:20;58.00;;;20.57;;
20441;SDS011;10380;52.102;20.614;2024-01-06T12:56:46;46.27;;;18.30;;
20441;SDS011;10380;52.102;20.614;2024-01-06T12:59:13;33.43;;;16.30;;
20441;SDS011;10380;52.102;20.614;2024-01-06T13:01:41;32.63;;;16.73;;
20441;SDS011;10380;52.102;20.614;2024-01-06T13:04:09;34.03;;;16.20;;
20441;SDS011;10380;52.102;20.614;2024-01-06T13:06:36;25.40;;;14.23;;
20441;SDS011;10380;52.102;20.614;2024-01-06T13:09:03;27.53;;;15.30;;
20441;SDS011;10380;52.102;20.614;2024-01-06T13:11:34;29.93;;;15.90;;
20441;SDS011;10380;52.102;20.614;2024-01-06T13:14:02;24.80;;;15.30;;
20441;SDS011;10380;52.102;20.614;2024-01-06T13:16:29;25.03;;;14.43;;
20441;SDS011;10380;52.102;20.614;2024-01-06T13:18:56;20.63;;;12.53;;
20441;SDS011;10380;52.102;20.614;2024-01-06T13:21:23;23.63;;;11.50;;
20441;SDS011;10380;52.102;20.614;2024-01-06T13:23:51;21.37;;;11.60;;
20441;SDS011;10380;52.102;20.614;2024-01-06T13:26:17;17.30;;;10.10;;
20441;SDS011;10380;52.102;20.614;2024-01-06T13:28:45;16.73;;;10.37;;
20441;SDS011;10380;52.102;20.614;2024-01-06T13:31:12;16.27;;;9.43;;
20441;SDS011;10380;52.102;20.614;2024-01-06T13:33:40;10.60;;;7.50;;
20441;SDS011;10380;52.102;20.614;2024-01-06T13:36:08;12.37;;;8.20;;
20441;SDS011;10380;52.102;20.614;2024-01-06T13:38:34;11.37;;;7.20;;
20441;SDS011;10380;52.102;20.614;2024-01-06T13:41:01;16.57;;;8.67;;
20441;SDS011;10380;52.102;20.614;2024-01-06T13:43:29;14.30;;;8.30;;
20441;SDS011;10380;52.102;20.614;2024-01-06T13:45:58;14.40;;;8.07;;
20441;SDS011;10380;52.102;20.614;2024-01-06T13:48:26;12.93;;;8.47;;
20441;SDS011;10380;52.102;20.614;2024-01-06T13:50:53;11.67;;;8.63;;
20441;SDS011;10380;52.102;20.614;2024-01-06T13:53:20;13.27;;;7.97;;
20441;SDS011;10380;52.102;20.614;2024-01-06T13:55:47;13.93;;;7.77;;
20441;SDS011;10380;52.102;20.614;2024-01-06T13:58:14;12.30;;;6.80;;
20441;SDS011;10380;52.102;20.614;2024-01-06T14:00:42;13.93;;;7.07;;
20441;SDS011;10380;52.102;20.614;2024-01-06T14:03:10;10.80;;;6.33;;
20441;SDS011;10380;52.102;20.614;2024-01-06T14:05:37;10.17;;;6.47;;
20441;SDS011;10380;52.102;20.614;2024-01-06T14:08:04;12.30;;;6.03;;
20441;SDS011;10380;52.102;20.614;2024-01-06T14:10:31;9.20;;;5.40;;
20441;SDS011;10380;52.102;20.614;2024-01-06T14:12:58;7.10;;;6.00;;
20441;SDS011;10380;52.102;20.614;2024-01-06T14:15:25;10.27;;;6.93;;
20441;SDS011;10380;52.102;20.614;2024-01-06T14:17:53;11.30;;;7.00;;
20441;SDS011;10380;52.102;20.614;2024-01-06T14:20:20;14.60;;;7.77;;